createdAt,value
2022-12-22T00:05:01.823Z,-18.06957
2022-12-22T00:10:03.442Z,-17.88161
2022-12-22T00:15:05.101Z,-17.54443
2022-12-22T00:20:06.921Z,-16.92022
2022-12-22T00:25:08.567Z,-17.0558
2022-12-22T00:30:10.671Z,-17.32186
2022-12-22T00:35:12.346Z,-17.06945
2022-12-22T00:40:14.003Z,-16.87641
2022-12-22T00:45:15.596Z,-17.12279
2022-12-22T00:50:17.550Z,-17.17422
2022-12-22T00:55:19.201Z,-17.73271
2022-12-22T01:00:20.986Z,-17.21677
2022-12-22T01:05:22.638Z,-17.42727
2022-12-22T01:10:24.298Z,-17.07104
2022-12-22T01:15:26.031Z,-16.51001
2022-12-22T01:20:27.872Z,-16.84466
2022-12-22T01:25:29.510Z,-16.7656
2022-12-22T01:30:31.221Z,-16.82561
2022-12-22T01:35:32.904Z,-17.19327
2022-12-22T01:40:34.552Z,-17.31043
2022-12-22T01:45:36.206Z,-16.92022
2022-12-22T01:50:37.848Z,-17.03516
2022-12-22T01:55:39.553Z,-17.94098
2022-12-22T02:00:41.191Z,-17.42854
2022-12-22T02:05:42.803Z,-17.0939
2022-12-22T02:10:44.551Z,-17.37996
2022-12-22T02:15:46.274Z,-17.17899
2022-12-22T02:20:47.936Z,-17.26471
2022-12-22T02:25:49.616Z,-17.28376
2022-12-22T02:30:51.311Z,-17.7816
2022-12-22T02:35:52.996Z,-17.2028
2022-12-22T02:40:54.777Z,-17.58062
2022-12-22T02:45:56.519Z,-17.29551
2022-12-22T02:50:58.136Z,-17.52697
2022-12-22T02:55:59.891Z,-17.45045
2022-12-22T03:01:01.698Z,-17.51331
2022-12-22T03:06:03.705Z,-17.83558
2022-12-22T03:11:05.517Z,-17.46315
2022-12-22T03:16:07.271Z,-17.81176
2022-12-22T03:21:08.954Z,-17.9467
2022-12-22T03:26:10.716Z,-18.42168
2022-12-22T03:31:12.532Z,-18.25785
2022-12-22T03:36:14.319Z,-18.50581
2022-12-22T03:41:15.973Z,-18.07751
2022-12-22T03:46:17.799Z,-17.99845
2022-12-22T03:51:19.645Z,-18.05211
2022-12-22T03:56:21.322Z,-17.55459
2022-12-22T04:01:23.047Z,-17.69461
2022-12-22T04:06:24.891Z,-18.36135
2022-12-22T04:11:26.575Z,-17.58348
2022-12-22T04:16:28.272Z,-17.6111
2022-12-22T04:21:30.008Z,-18.09053
2022-12-22T04:26:31.666Z,-17.69746
2022-12-22T04:31:33.414Z,-18.43501
2022-12-22T04:36:35.290Z,-18.13752
2022-12-22T04:41:36.956Z,-17.93844
2022-12-22T04:46:38.718Z,-18.32262
2022-12-22T04:51:40.317Z,-17.68826
2022-12-22T04:56:41.965Z,-17.77589
2022-12-22T05:01:43.784Z,-17.72159
2022-12-22T05:06:45.557Z,-17.58539
2022-12-22T05:11:47.195Z,-17.94003
2022-12-22T05:16:49.646Z,-17.93686
2022-12-22T05:21:51.350Z,-17.72445
2022-12-22T05:26:52.968Z,-17.55649
2022-12-22T05:31:54.646Z,-17.56729
2022-12-22T05:36:56.285Z,-17.58348
2022-12-22T05:41:57.948Z,-17.74223
2022-12-22T05:46:59.629Z,-17.55618
2022-12-22T05:52:01.596Z,-17.38282
2022-12-22T05:57:03.230Z,-17.90924
2022-12-22T06:02:04.976Z,-17.98289
2022-12-22T06:07:06.786Z,-18.00702
2022-12-22T06:12:08.443Z,-18.04322
2022-12-22T06:17:10.152Z,-18.13244
2022-12-22T06:22:12.047Z,-17.5276
2022-12-22T06:27:13.681Z,-17.77303
2022-12-22T06:32:15.328Z,-17.39362
2022-12-22T06:37:16.986Z,-18.08767
2022-12-22T06:42:18.960Z,-17.82256
2022-12-22T06:47:20.701Z,-17.6346
2022-12-22T06:52:22.346Z,-17.51077
2022-12-22T06:57:24.038Z,-17.84669
2022-12-22T07:02:26.049Z,-17.77239
2022-12-22T07:07:27.886Z,-18.49216
2022-12-22T07:12:29.830Z,-18.63535
2022-12-22T07:17:31.460Z,-18.25023
2022-12-22T07:22:33.284Z,-18.39469
2022-12-22T07:27:34.917Z,-17.96448
2022-12-22T07:32:36.813Z,-17.97654
2022-12-22T07:37:38.481Z,-18.14355
2022-12-22T07:42:40.213Z,-18.44581
2022-12-22T07:47:42.004Z,-18.46485
2022-12-22T07:52:43.620Z,-18.62329
2022-12-22T07:57:45.248Z,-18.6363
2022-12-22T08:02:47.107Z,-18.72139
2022-12-22T08:07:48.827Z,-18.95634
2022-12-22T08:12:50.642Z,-18.91538
2022-12-22T08:17:52.408Z,-19.33003
2022-12-22T08:22:53.965Z,-19.06429
2022-12-22T08:27:55.701Z,-19.26526
2022-12-22T08:32:57.464Z,-19.16207
2022-12-22T08:37:59.344Z,-19.33066
2022-12-22T08:43:00.987Z,-19.94501
2022-12-22T08:48:02.653Z,-19.79357
2022-12-22T08:53:04.550Z,-19.23478
2022-12-22T08:58:06.217Z,-18.66488
2022-12-22T09:03:07.960Z,-19.18589
2022-12-22T09:08:09.830Z,-19.03825
2022-12-22T09:13:11.598Z,-19.42623
2022-12-22T09:18:13.264Z,-19.79992
2022-12-22T09:23:15.287Z,-19.18589
2022-12-22T09:28:16.956Z,-19.25669
2022-12-22T09:33:18.615Z,-19.48973
2022-12-22T09:38:20.245Z,-19.66149
2022-12-22T09:43:21.889Z,-19.73674
2022-12-22T09:48:23.523Z,-19.28177
2022-12-22T09:53:25.207Z,-20.06185
2022-12-22T09:58:27.001Z,-19.92215
2022-12-22T10:03:28.894Z,-19.79642
2022-12-22T10:08:30.648Z,-19.91231
2022-12-22T10:13:32.328Z,-19.97295
2022-12-22T10:18:33.955Z,-19.77071
2022-12-22T10:23:35.587Z,-19.9231
2022-12-22T10:28:37.472Z,-19.61291
2022-12-22T10:33:45.947Z,-19.21859
2022-12-22T10:38:48.808Z,-19.33606
2022-12-22T10:43:50.665Z,-20.533
2022-12-22T10:48:52.338Z,-20.16217
2022-12-22T10:53:54.006Z,-19.41067
2022-12-22T10:58:55.759Z,-20.20662
2022-12-22T11:03:57.459Z,-19.37956
2022-12-22T11:09:31.417Z,-18.88935
2022-12-22T11:14:34.096Z,-18.89601
2022-12-22T11:19:36.013Z,-19.80087
2022-12-22T11:24:37.654Z,-18.89506
2022-12-22T11:29:39.311Z,-19.81706
2022-12-22T11:34:41.305Z,-19.44464
2022-12-22T11:39:42.906Z,-19.85262
2022-12-22T11:44:44.555Z,-19.82786
2022-12-22T11:49:46.310Z,-19.61609
2022-12-22T11:54:47.963Z,-19.99327
2022-12-22T11:59:50.129Z,-19.9812
2022-12-22T12:04:51.821Z,-20.0447
2022-12-22T12:09:53.479Z,-20.59777
2022-12-22T12:14:55.192Z,-20.46665
2022-12-22T12:19:56.838Z,-20.0247
2022-12-22T12:24:58.508Z,-20.07423
2022-12-22T12:30:35.779Z,-19.58878
2022-12-22T12:35:39.151Z,-21.10924
2022-12-22T12:40:40.835Z,-20.07931
2022-12-22T12:45:42.585Z,-20.16186
2022-12-22T12:50:44.215Z,-20.24313
2022-12-22T12:55:45.925Z,-19.40464
2022-12-22T13:00:51.178Z,-19.49893
2022-12-22T13:05:55.710Z,-19.39702
2022-12-22T13:10:57.476Z,-19.39035
2022-12-22T13:15:59.237Z,-19.77198
2022-12-22T13:21:33.821Z,-20.62412
2022-12-22T13:26:52.323Z,-20.88922
2022-12-22T13:31:54.397Z,-21.1194
2022-12-22T13:36:56.108Z,-20.27202
2022-12-22T13:41:57.787Z,-20.26631
2022-12-22T13:46:59.885Z,-20.39807
2022-12-22T13:52:05.232Z,-19.82817
2022-12-22T13:57:07.649Z,-19.62688
2022-12-22T14:02:09.330Z,-20.12757
2022-12-22T14:07:11.971Z,-20.85652
2022-12-22T14:12:13.674Z,-20.52221
2022-12-22T14:17:15.317Z,-20.35013
2022-12-22T14:22:16.996Z,-20.0574
2022-12-22T14:27:18.739Z,-19.95009
2022-12-22T14:32:20.631Z,-20.11487
2022-12-22T14:37:25.720Z,-20.45617
2022-12-22T14:42:32.635Z,-20.68095
2022-12-22T14:47:34.323Z,-20.95081
2022-12-22T14:52:36.070Z,-20.15424
2022-12-22T14:57:37.776Z,-20.53903
2022-12-22T15:02:40.506Z,-21.45213
2022-12-22T15:12:55.807Z,-20.68762
2022-12-22T15:17:57.486Z,-20.70667
2022-12-22T15:22:59.367Z,-20.54634
2022-12-22T15:28:01.031Z,-20.89621
2022-12-22T15:33:02.854Z,-21.64516
2022-12-22T15:38:04.636Z,-21.01463
2022-12-22T15:43:09.985Z,-20.44029
2022-12-22T15:48:19.322Z,-21.33307
2022-12-22T15:53:20.992Z,-20.89811
2022-12-22T15:58:22.655Z,-20.5511
2022-12-22T16:03:24.707Z,-20.74635
2022-12-22T16:08:26.550Z,-20.68762
2022-12-22T16:13:28.809Z,-20.30092
2022-12-22T16:18:30.833Z,-19.7561
2022-12-22T16:23:32.578Z,-20.04692
2022-12-22T16:28:34.274Z,-20.53649
2022-12-22T16:33:36.011Z,-20.28218
2022-12-22T16:38:37.700Z,-19.74785
2022-12-22T16:50:51.114Z,-18.05465
2022-12-22T16:55:52.749Z,-18.52391
2022-12-22T17:00:54.443Z,-18.09116
2022-12-22T17:05:56.182Z,-18.29341
2022-12-22T17:10:58.069Z,-17.97369
2022-12-22T17:15:59.874Z,-15.60861
2022-12-22T17:21:01.564Z,-15.56766
2022-12-22T17:26:03.209Z,-14.69673
2022-12-22T17:31:05.003Z,-14.44844
2022-12-22T17:36:06.777Z,-14.29445
2022-12-22T17:41:08.389Z,-14.11315
2022-12-22T17:46:10.128Z,-13.91629
2022-12-22T17:51:11.854Z,-15.49368
2022-12-22T17:56:13.554Z,-15.33238
2022-12-22T18:01:15.443Z,-15.13934
2022-12-22T18:06:18.279Z,-16.29665
2022-12-22T18:11:20.109Z,-16.44048
2022-12-22T18:16:22.004Z,-16.56208
2022-12-22T18:21:23.785Z,-16.66749
2022-12-22T18:26:25.503Z,-15.82611
2022-12-22T18:31:27.237Z,-15.07552
2022-12-22T18:36:28.965Z,-15.81944
2022-12-22T18:41:30.602Z,-16.8183
2022-12-22T18:46:32.335Z,-16.42365
2022-12-22T18:51:34.086Z,-18.00067
2022-12-22T18:56:35.858Z,-18.46009
2022-12-22T19:01:37.660Z,-16.99579
2022-12-22T19:06:39.536Z,-15.45621
2022-12-22T19:11:41.441Z,-17.08913
2022-12-22T19:16:43.330Z,-17.41965
2022-12-22T19:21:45.014Z,-18.77568
2022-12-22T19:26:46.874Z,-17.81621
2022-12-22T19:31:48.769Z,-17.83621
2022-12-22T19:36:50.450Z,-17.03167
2022-12-22T19:41:52.195Z,-15.71434
2022-12-22T19:46:54.150Z,-15.40065
2022-12-22T19:51:55.859Z,-14.75801
2022-12-22T19:56:57.529Z,-15.73435
2022-12-22T20:01:59.394Z,-14.10965
2022-12-22T20:07:01.195Z,-15.1514
2022-12-22T20:12:02.962Z,-16.55795
2022-12-22T20:17:04.678Z,-16.10138
2022-12-22T20:22:06.397Z,-16.31602
2022-12-22T20:27:07.997Z,-16.33856
2022-12-22T20:32:09.701Z,-16.49255
2022-12-22T20:37:11.404Z,-16.83704
2022-12-22T20:42:13.044Z,-15.84579
2022-12-22T20:47:21.803Z,-16.80592
2022-12-22T20:52:24.124Z,-15.79753
2022-12-22T20:57:25.799Z,-16.21029
2022-12-22T21:02:28.194Z,-15.39747
2022-12-22T21:07:30.427Z,-15.23142
2022-12-22T21:12:32.143Z,-15.42478
2022-12-22T21:17:33.873Z,-14.7542
2022-12-22T21:22:35.891Z,-14.82246
2022-12-22T21:27:37.560Z,-15.44002
2022-12-22T21:32:39.224Z,-14.98693
2022-12-22T21:37:40.909Z,-15.95787
2022-12-22T21:42:42.542Z,-15.33207
2022-12-22T21:47:44.223Z,-15.94834
2022-12-22T21:52:45.871Z,-16.01978
2022-12-22T21:57:47.510Z,-14.66022
2022-12-22T22:02:49.363Z,-15.07679
2022-12-22T22:07:51.140Z,-15.54702
2022-12-22T22:12:52.821Z,-15.3527
2022-12-22T22:17:54.531Z,-15.32984
2022-12-22T22:22:56.263Z,-15.2203
2022-12-22T22:27:58.038Z,-15.63147
2022-12-22T22:32:59.773Z,-15.28539
2022-12-22T22:38:01.465Z,-15.59909
2022-12-22T22:43:03.108Z,-15.85754
2022-12-22T22:48:10.508Z,-15.82515
2022-12-22T22:53:12.877Z,-15.97152
2022-12-22T22:58:14.668Z,-15.67878
2022-12-22T23:03:16.844Z,-15.96105
2022-12-22T23:08:18.749Z,-16.704
2022-12-22T23:13:20.566Z,-16.70115
2022-12-22T23:18:22.283Z,-16.15409
2022-12-22T23:23:23.901Z,-15.58512
2022-12-22T23:28:25.534Z,-15.36572
2022-12-22T23:33:27.185Z,-16.05947
2022-12-22T23:38:28.845Z,-16.01851
2022-12-22T23:43:30.501Z,-16.24966
2022-12-22T23:48:32.166Z,-16.65035
2022-12-22T23:53:33.881Z,-16.53192
2022-12-22T23:58:35.569Z,-16.72083
